createdAt,value
2023-03-29T00:02:30.384Z,2.45
2023-03-29T00:05:01.805Z,2.78
2023-03-29T00:07:30.137Z,2.30
2023-03-29T00:09:56.680Z,2.75
2023-03-29T00:12:23.094Z,2.47
2023-03-29T00:14:49.549Z,2.30
2023-03-29T00:17:15.969Z,2.10
2023-03-29T00:19:46.497Z,2.22
2023-03-29T00:22:13.931Z,2.42
2023-03-29T00:24:40.805Z,2.10
2023-03-29T00:27:07.218Z,2.17
2023-03-29T00:29:33.740Z,2.50
2023-03-29T00:32:00.193Z,2.83
2023-03-29T00:34:30.705Z,2.50
2023-03-29T00:36:58.324Z,2.75
2023-03-29T00:39:26.450Z,2.42
2023-03-29T00:41:53.846Z,2.15
2023-03-29T00:44:57.941Z,2.40
2023-03-29T00:47:58.321Z,2.53
2023-03-29T00:50:30.809Z,2.10
2023-03-29T00:53:09.050Z,2.50
2023-03-29T00:55:57.850Z,2.15
2023-03-29T00:58:30.491Z,2.80
2023-03-29T01:01:20.827Z,2.15
2023-03-29T01:03:54.474Z,2.30
2023-03-29T01:06:24.813Z,2.30
2023-03-29T01:08:56.099Z,1.95
2023-03-29T01:11:27.027Z,2.67
2023-03-29T01:13:57.771Z,2.50
2023-03-29T01:16:28.430Z,2.38
2023-03-29T01:18:58.230Z,2.33
2023-03-29T01:21:49.321Z,2.35
2023-03-29T01:24:34.438Z,1.98
2023-03-29T01:27:05.426Z,2.47
2023-03-29T01:29:40.139Z,2.08
2023-03-29T01:32:16.869Z,2.00
2023-03-29T01:34:53.138Z,2.60
2023-03-29T01:37:28.523Z,2.38
2023-03-29T01:39:54.972Z,2.50
2023-03-29T01:42:38.609Z,1.95
2023-03-29T01:45:16.096Z,2.00
2023-03-29T01:48:05.467Z,2.05
2023-03-29T01:51:03.696Z,2.03
2023-03-29T01:53:38.094Z,1.85
2023-03-29T01:56:13.135Z,1.87
2023-03-29T02:01:10.460Z,1.90
2023-03-29T02:03:42.299Z,2.40
2023-03-29T02:06:15.931Z,2.22
2023-03-29T02:08:44.697Z,2.00
2023-03-29T02:11:11.379Z,1.90
2023-03-29T02:13:37.814Z,2.10
2023-03-29T02:16:09.761Z,1.85
2023-03-29T02:18:36.274Z,1.90
2023-03-29T02:21:02.870Z,2.20
2023-03-29T02:23:38.614Z,2.17
2023-03-29T02:26:06.657Z,2.10
2023-03-29T02:28:33.362Z,2.30
2023-03-29T02:31:11.653Z,3.00
2023-03-29T02:33:54.410Z,2.05
2023-03-29T02:36:29.390Z,3.10
2023-03-29T02:38:57.955Z,2.03
2023-03-29T02:41:25.740Z,2.20
2023-03-29T02:43:53.234Z,2.10
2023-03-29T02:46:20.901Z,2.45
2023-03-29T02:48:49.605Z,2.30
2023-03-29T02:51:21.432Z,2.47
2023-03-29T02:53:57.135Z,2.28
2023-03-29T02:56:23.821Z,2.17
2023-03-29T02:58:50.218Z,2.60
2023-03-29T03:01:18.231Z,2.65
2023-03-29T03:03:45.155Z,2.35
2023-03-29T03:06:12.307Z,2.40
2023-03-29T03:08:38.807Z,2.65
2023-03-29T03:11:05.565Z,2.40
2023-03-29T03:13:31.956Z,2.30
2023-03-29T03:15:58.346Z,3.33
2023-03-29T03:18:24.779Z,2.40
2023-03-29T03:21:04.601Z,2.53
2023-03-29T03:23:31.230Z,2.67
2023-03-29T03:25:58.915Z,2.40
2023-03-29T03:28:27.195Z,2.60
2023-03-29T03:30:54.242Z,2.45
2023-03-29T03:33:20.732Z,2.70
2023-03-29T03:35:47.873Z,2.45
2023-03-29T03:38:15.196Z,2.60
2023-03-29T03:40:41.552Z,2.17
2023-03-29T03:43:08.009Z,2.80
2023-03-29T03:45:34.779Z,2.28
2023-03-29T03:48:01.151Z,2.50
2023-03-29T03:50:28.059Z,2.55
2023-03-29T03:52:54.434Z,2.45
2023-03-29T03:55:21.969Z,2.78
2023-03-29T03:57:48.831Z,2.80
2023-03-29T04:00:21.427Z,2.97
2023-03-29T04:02:48.434Z,2.80
2023-03-29T04:05:16.282Z,3.42
2023-03-29T04:07:42.915Z,3.20
2023-03-29T04:10:11.019Z,2.95
2023-03-29T04:12:38.052Z,2.70
2023-03-29T04:15:05.813Z,2.60
2023-03-29T04:17:32.328Z,2.80
2023-03-29T04:19:58.804Z,3.10
2023-03-29T04:22:25.735Z,2.88
2023-03-29T04:24:52.276Z,2.90
2023-03-29T04:27:18.872Z,2.95
2023-03-29T04:29:45.278Z,3.22
2023-03-29T04:32:11.833Z,3.10
2023-03-29T04:34:38.314Z,3.03
2023-03-29T04:37:10.319Z,3.50
2023-03-29T04:39:37.540Z,3.78
2023-03-29T04:42:05.103Z,4.05
2023-03-29T04:44:33.908Z,4.40
2023-03-29T04:47:01.469Z,3.70
2023-03-29T04:49:27.885Z,3.97
2023-03-29T04:51:54.494Z,4.10
2023-03-29T04:54:21.279Z,4.13
2023-03-29T04:56:47.682Z,3.97
2023-03-29T04:59:14.076Z,4.40
2023-03-29T05:01:40.510Z,4.57
2023-03-29T05:04:06.902Z,4.55
2023-03-29T05:06:33.307Z,4.65
2023-03-29T05:09:01.127Z,4.78
2023-03-29T05:11:27.620Z,4.25
2023-03-29T05:13:57.069Z,4.70
2023-03-29T05:16:24.475Z,4.28
2023-03-29T05:18:51.632Z,4.97
2023-03-29T05:21:18.470Z,4.85
2023-03-29T05:23:44.823Z,4.32
2023-03-29T05:26:14.528Z,4.55
2023-03-29T05:28:41.983Z,5.05
2023-03-29T05:31:08.929Z,3.83
2023-03-29T05:33:36.398Z,3.75
2023-03-29T05:36:06.201Z,4.70
2023-03-29T05:38:32.875Z,3.88
2023-03-29T05:40:59.771Z,4.00
2023-03-29T05:43:27.070Z,3.70
2023-03-29T05:45:54.806Z,3.47
2023-03-29T05:48:23.255Z,3.50
2023-03-29T05:50:51.133Z,3.53
2023-03-29T05:53:18.645Z,3.70
2023-03-29T05:55:46.603Z,3.60
2023-03-29T05:58:14.342Z,3.40
2023-03-29T06:00:41.715Z,3.10
2023-03-29T06:03:18.088Z,2.95
2023-03-29T06:05:49.933Z,4.53
2023-03-29T06:08:17.051Z,3.40
2023-03-29T06:10:43.650Z,3.55
2023-03-29T06:13:10.762Z,3.40
2023-03-29T06:15:37.150Z,3.20
2023-03-29T06:18:04.533Z,3.30
2023-03-29T06:20:31.269Z,2.80
2023-03-29T06:22:58.412Z,3.30
2023-03-29T06:25:24.972Z,2.90
2023-03-29T06:27:52.126Z,2.95
2023-03-29T06:30:19.701Z,3.10
2023-03-29T06:32:46.380Z,2.80
2023-03-29T06:35:12.814Z,3.50
2023-03-29T06:37:41.093Z,2.67
2023-03-29T06:40:09.343Z,2.65
2023-03-29T06:42:35.798Z,2.60
2023-03-29T06:45:02.576Z,3.08
2023-03-29T06:47:31.371Z,2.58
2023-03-29T06:49:57.903Z,2.53
2023-03-29T06:52:24.355Z,3.05
2023-03-29T06:54:50.792Z,2.95
2023-03-29T06:57:17.753Z,2.72
2023-03-29T06:59:44.380Z,3.05
2023-03-29T07:02:12.403Z,2.75
2023-03-29T07:04:39.667Z,2.08
2023-03-29T07:07:07.645Z,2.50
2023-03-29T07:09:35.940Z,2.60
2023-03-29T07:12:02.442Z,2.45
2023-03-29T07:14:29.865Z,2.63
2023-03-29T07:16:58.402Z,2.38
2023-03-29T07:19:27.345Z,2.83
2023-03-29T07:21:54.264Z,2.60
2023-03-29T07:24:21.400Z,2.70
2023-03-29T07:27:00.054Z,2.60
2023-03-29T07:29:29.359Z,2.97
2023-03-29T07:31:56.364Z,2.63
2023-03-29T07:34:22.822Z,2.33
2023-03-29T07:36:49.192Z,2.05
2023-03-29T07:39:15.637Z,2.67
2023-03-29T07:41:42.024Z,2.22
2023-03-29T07:44:09.307Z,3.22
2023-03-29T07:46:36.307Z,2.35
2023-03-29T07:49:05.667Z,2.38
2023-03-29T07:51:32.069Z,2.28
2023-03-29T07:53:59.704Z,2.47
2023-03-29T07:56:26.399Z,2.40
2023-03-29T07:58:52.918Z,2.45
2023-03-29T08:01:19.782Z,2.15
2023-03-29T08:03:46.563Z,2.42
2023-03-29T08:06:13.039Z,2.92
2023-03-29T08:08:39.430Z,2.50
2023-03-29T08:11:08.845Z,2.13
2023-03-29T08:13:35.423Z,2.13
2023-03-29T08:16:01.977Z,2.20
2023-03-29T08:18:28.346Z,2.60
2023-03-29T08:20:54.741Z,2.40
2023-03-29T08:23:21.156Z,2.70
2023-03-29T08:25:47.665Z,2.63
2023-03-29T08:28:14.023Z,2.22
2023-03-29T08:30:40.467Z,2.50
2023-03-29T08:33:06.938Z,2.58
2023-03-29T08:35:33.447Z,2.40
2023-03-29T08:37:59.998Z,2.33
2023-03-29T08:40:29.994Z,3.30
2023-03-29T08:43:07.847Z,2.60
2023-03-29T08:45:47.398Z,2.40
2023-03-29T08:48:21.560Z,2.25
2023-03-29T08:50:54.405Z,2.88
2023-03-29T08:53:28.769Z,3.05
2023-03-29T08:55:59.672Z,2.63
2023-03-29T08:58:31.399Z,2.47
2023-03-29T09:01:00.110Z,2.85
2023-03-29T09:03:42.093Z,2.45
2023-03-29T09:06:11.048Z,2.53
2023-03-29T09:08:41.295Z,2.70
2023-03-29T09:11:29.382Z,2.85
2023-03-29T09:14:17.403Z,2.30
2023-03-29T09:17:03.045Z,2.90
2023-03-29T09:19:58.797Z,2.35
2023-03-29T09:22:39.105Z,2.00
2023-03-29T09:25:27.475Z,2.72
2023-03-29T09:28:17.292Z,2.65
2023-03-29T09:31:13.538Z,2.70
2023-03-29T09:33:43.902Z,3.03
2023-03-29T09:36:23.599Z,2.53
2023-03-29T09:38:54.203Z,2.60
2023-03-29T09:41:33.759Z,2.63
2023-03-29T09:44:05.750Z,2.40
2023-03-29T09:46:42.220Z,2.40
2023-03-29T09:49:21.103Z,2.60
2023-03-29T09:51:49.698Z,2.80
2023-03-29T09:54:16.877Z,2.63
2023-03-29T09:56:43.417Z,2.78
2023-03-29T09:59:12.688Z,2.80
2023-03-29T10:01:46.669Z,2.95
2023-03-29T10:04:14.209Z,2.80
2023-03-29T10:06:50.192Z,2.72
2023-03-29T10:09:24.065Z,2.97
2023-03-29T10:11:56.767Z,2.90
2023-03-29T10:14:35.323Z,2.85
2023-03-29T10:17:06.028Z,2.60
2023-03-29T10:19:34.923Z,2.60
2023-03-29T10:22:23.165Z,2.85
2023-03-29T10:24:52.102Z,2.78
2023-03-29T10:27:30.382Z,2.55
2023-03-29T10:29:59.517Z,2.53
2023-03-29T10:32:33.674Z,2.97
2023-03-29T10:35:24.052Z,3.47
2023-03-29T10:37:57.509Z,3.15
2023-03-29T10:40:30.871Z,2.95
2023-03-29T10:43:11.186Z,3.38
2023-03-29T10:45:38.876Z,3.22
2023-03-29T10:48:06.905Z,3.42
2023-03-29T10:50:35.873Z,3.08
2023-03-29T10:53:03.990Z,3.08
2023-03-29T10:55:40.999Z,2.90
2023-03-29T10:58:23.534Z,3.22
2023-03-29T11:00:56.209Z,3.03
2023-03-29T11:03:26.932Z,3.25
2023-03-29T11:06:11.627Z,3.20
2023-03-29T11:08:48.953Z,2.97
2023-03-29T11:11:36.839Z,2.72
2023-03-29T11:14:32.526Z,2.97
2023-03-29T11:19:52.293Z,3.65
2023-03-29T11:22:36.423Z,2.63
2023-03-29T11:25:44.741Z,3.63
2023-03-29T11:28:19.583Z,2.70
2023-03-29T11:33:50.970Z,2.77
2023-03-29T11:36:22.432Z,3.22
2023-03-29T11:39:13.141Z,3.33
2023-03-29T11:41:44.435Z,2.90
2023-03-29T11:44:33.195Z,3.38
2023-03-29T11:47:02.340Z,3.13
2023-03-29T11:49:46.707Z,2.88
2023-03-29T11:52:18.938Z,3.60
2023-03-29T11:54:51.493Z,3.20
2023-03-29T11:57:27.426Z,3.70
2023-03-29T12:00:15.840Z,3.13
2023-03-29T12:03:05.487Z,3.53
2023-03-29T12:05:42.107Z,3.50
2023-03-29T12:08:16.367Z,3.10
2023-03-29T12:10:56.630Z,2.83
2023-03-29T12:13:33.743Z,2.67
2023-03-29T12:16:08.756Z,3.47
2023-03-29T12:21:17.143Z,3.08
2023-03-29T12:23:44.684Z,2.70
2023-03-29T12:26:20.372Z,3.00
2023-03-29T12:28:49.478Z,2.95
2023-03-29T12:31:15.853Z,3.47
2023-03-29T12:33:58.480Z,3.45
2023-03-29T12:36:54.081Z,2.92
2023-03-29T12:39:21.510Z,3.10
2023-03-29T12:41:53.342Z,3.40
2023-03-29T12:44:24.149Z,3.75
2023-03-29T12:46:57.536Z,3.15
2023-03-29T12:49:29.496Z,2.80
2023-03-29T12:51:58.471Z,2.97
2023-03-29T12:54:28.600Z,2.80
2023-03-29T12:57:00.259Z,2.67
2023-03-29T12:59:47.147Z,2.50
2023-03-29T13:02:17.510Z,2.20
2023-03-29T13:04:43.890Z,3.05
2023-03-29T13:07:31.225Z,2.55
2023-03-29T13:10:30.764Z,2.50
2023-03-29T13:12:57.974Z,2.03
2023-03-29T13:15:26.692Z,2.15
2023-03-29T13:18:06.987Z,1.65
2023-03-29T13:20:47.176Z,1.70
2023-03-29T13:23:58.631Z,1.60
2023-03-29T13:26:41.082Z,1.90
2023-03-29T13:29:36.360Z,1.52
2023-03-29T13:32:11.986Z,1.88
2023-03-29T13:35:19.267Z,1.73
2023-03-29T13:38:15.562Z,2.17
2023-03-29T13:40:51.894Z,2.30
2023-03-29T13:43:21.110Z,1.73
2023-03-29T13:45:56.554Z,1.65
2023-03-29T13:48:31.869Z,2.20
2023-03-29T13:51:08.118Z,2.00
2023-03-29T13:53:37.245Z,1.80
2023-03-29T13:56:07.782Z,2.05
2023-03-29T13:58:42.773Z,1.63
2023-03-29T14:01:36.455Z,1.58
2023-03-29T14:04:05.846Z,1.63
2023-03-29T14:06:34.769Z,1.40
2023-03-29T14:09:06.263Z,1.70
2023-03-29T14:11:33.329Z,1.20
2023-03-29T14:14:02.804Z,1.30
2023-03-29T14:16:35.271Z,1.60
2023-03-29T14:19:11.718Z,1.40
2023-03-29T14:21:38.160Z,1.38
2023-03-29T14:24:05.231Z,1.58
2023-03-29T14:26:35.791Z,1.70
2023-03-29T14:29:02.828Z,1.27
2023-03-29T14:31:36.048Z,1.20
2023-03-29T14:34:05.978Z,1.30
2023-03-29T14:36:33.491Z,1.58
2023-03-29T14:39:05.511Z,1.60
2023-03-29T14:41:37.593Z,1.17
2023-03-29T14:44:06.722Z,1.10
2023-03-29T14:46:34.092Z,1.20
2023-03-29T14:49:02.164Z,1.75
2023-03-29T14:51:31.005Z,1.40
2023-03-29T14:54:00.185Z,1.52
2023-03-29T14:56:27.550Z,1.70
2023-03-29T14:58:56.465Z,1.30
2023-03-29T15:01:25.742Z,1.65
2023-03-29T15:03:56.200Z,2.13
2023-03-29T15:06:25.111Z,1.55
2023-03-29T15:09:04.405Z,1.38
2023-03-29T15:11:33.731Z,1.52
2023-03-29T15:14:08.987Z,1.50
2023-03-29T15:16:44.124Z,1.38
2023-03-29T15:19:18.058Z,1.67
2023-03-29T15:21:45.273Z,1.30
2023-03-29T15:24:21.997Z,1.52
2023-03-29T15:26:59.806Z,1.42
2023-03-29T15:29:35.178Z,1.30
2023-03-29T15:32:02.309Z,1.63
2023-03-29T15:34:33.332Z,1.50
2023-03-29T15:37:00.942Z,1.30
2023-03-29T15:39:28.669Z,1.40
2023-03-29T15:41:56.946Z,1.10
2023-03-29T15:44:28.980Z,1.77
2023-03-29T15:46:57.741Z,1.58
2023-03-29T15:49:24.906Z,1.55
2023-03-29T15:51:55.135Z,1.70
2023-03-29T15:54:22.231Z,1.42
2023-03-29T15:56:53.584Z,1.48
2023-03-29T15:59:20.378Z,1.70
2023-03-29T16:01:47.469Z,1.10
2023-03-29T16:04:18.989Z,1.40
2023-03-29T16:06:48.577Z,1.20
2023-03-29T16:09:17.781Z,1.50
2023-03-29T16:11:46.007Z,1.33
2023-03-29T16:14:22.883Z,1.33
2023-03-29T16:16:50.298Z,1.40
2023-03-29T16:19:16.747Z,1.42
2023-03-29T16:21:43.617Z,1.73
2023-03-29T16:24:19.604Z,1.48
2023-03-29T16:26:46.458Z,1.55
2023-03-29T16:29:12.832Z,1.25
2023-03-29T16:31:39.408Z,1.70
2023-03-29T16:34:06.124Z,1.92
2023-03-29T16:36:33.715Z,1.40
2023-03-29T16:39:00.413Z,1.80
2023-03-29T16:41:27.022Z,1.20
2023-03-29T16:43:53.372Z,1.30
2023-03-29T16:46:19.854Z,1.20
2023-03-29T16:48:46.384Z,1.10
2023-03-29T16:51:12.750Z,1.50
2023-03-29T16:53:39.153Z,1.85
2023-03-29T16:56:06.049Z,1.30
2023-03-29T16:58:32.552Z,1.30
2023-03-29T17:01:09.540Z,1.45
2023-03-29T17:03:37.245Z,1.42
2023-03-29T17:06:04.759Z,1.55
2023-03-29T17:08:32.352Z,1.23
2023-03-29T17:10:59.054Z,1.40
2023-03-29T17:13:25.977Z,1.52
2023-03-29T17:15:54.330Z,1.10
2023-03-29T17:18:22.083Z,1.35
2023-03-29T17:20:51.233Z,1.30
2023-03-29T17:23:17.786Z,1.63
2023-03-29T17:25:44.208Z,1.92
2023-03-29T17:28:10.978Z,2.05
2023-03-29T17:30:37.837Z,1.40
2023-03-29T17:33:05.102Z,1.67
2023-03-29T17:35:32.344Z,2.30
2023-03-29T17:37:58.858Z,1.70
2023-03-29T17:40:25.676Z,1.60
2023-03-29T17:42:52.554Z,1.90
2023-03-29T17:45:19.816Z,1.95
2023-03-29T17:47:46.338Z,1.80
2023-03-29T17:50:12.938Z,1.73
2023-03-29T17:52:39.712Z,1.98
2023-03-29T17:55:13.372Z,2.15
2023-03-29T17:57:41.049Z,1.90
2023-03-29T18:00:12.020Z,1.98
2023-03-29T18:02:39.708Z,1.90
2023-03-29T18:05:08.199Z,1.73
2023-03-29T18:07:34.651Z,1.80
2023-03-29T18:10:01.363Z,2.05
2023-03-29T18:12:28.760Z,1.83
2023-03-29T18:14:56.889Z,1.70
2023-03-29T18:17:24.459Z,2.00
2023-03-29T18:19:51.420Z,2.33
2023-03-29T18:22:18.559Z,1.85
2023-03-29T18:24:46.390Z,2.00
2023-03-29T18:27:13.200Z,1.60
2023-03-29T18:29:39.640Z,1.95
2023-03-29T18:32:07.075Z,2.17
2023-03-29T18:34:34.230Z,1.80
2023-03-29T18:37:00.889Z,2.00
2023-03-29T18:39:27.972Z,1.75
2023-03-29T18:41:54.388Z,1.50
2023-03-29T18:44:22.608Z,2.00
2023-03-29T18:46:48.994Z,1.90
2023-03-29T18:49:15.358Z,1.80
2023-03-29T18:51:42.168Z,1.95
2023-03-29T18:54:08.957Z,1.85
2023-03-29T18:56:35.837Z,1.50
2023-03-29T18:59:06.088Z,1.90
2023-03-29T19:01:33.236Z,2.00
2023-03-29T19:03:59.898Z,2.10
2023-03-29T19:06:26.423Z,1.70
2023-03-29T19:08:53.997Z,1.70
2023-03-29T19:11:20.530Z,2.17
2023-03-29T19:13:50.131Z,1.75
2023-03-29T19:16:17.273Z,1.70
2023-03-29T19:18:43.810Z,1.60
2023-03-29T19:21:10.674Z,1.95
2023-03-29T19:23:37.465Z,1.90
2023-03-29T19:26:05.798Z,1.80
2023-03-29T19:28:33.546Z,1.73
2023-03-29T19:31:01.860Z,1.70
2023-03-29T19:33:29.273Z,1.63
2023-03-29T19:35:56.502Z,1.63
2023-03-29T19:38:23.383Z,1.52
2023-03-29T19:40:51.328Z,1.70
2023-03-29T19:43:18.305Z,1.45
2023-03-29T19:45:46.111Z,1.65
2023-03-29T19:48:21.900Z,1.45
2023-03-29T19:50:49.435Z,2.28
2023-03-29T19:53:15.860Z,1.70
2023-03-29T19:55:44.101Z,2.15
2023-03-29T19:58:10.613Z,1.90
2023-03-29T20:00:38.795Z,1.85
2023-03-29T20:03:09.120Z,1.75
2023-03-29T20:05:37.144Z,1.75
2023-03-29T20:08:03.902Z,1.70
2023-03-29T20:10:30.609Z,1.88
2023-03-29T20:12:57.045Z,2.78
2023-03-29T20:15:26.257Z,1.50
2023-03-29T20:17:55.336Z,2.03
2023-03-29T20:20:25.519Z,1.77
2023-03-29T20:22:53.913Z,2.03
2023-03-29T20:25:21.137Z,1.85
2023-03-29T20:27:49.508Z,1.95
2023-03-29T20:30:16.360Z,2.10
2023-03-29T20:32:43.028Z,2.33
2023-03-29T20:35:11.030Z,2.67
2023-03-29T20:37:37.473Z,2.20
2023-03-29T20:40:05.368Z,2.20
2023-03-29T20:42:34.284Z,2.10
2023-03-29T20:45:01.852Z,2.20
2023-03-29T20:47:29.296Z,2.50
2023-03-29T20:49:56.736Z,2.20
2023-03-29T20:52:24.374Z,2.00
2023-03-29T20:54:51.007Z,2.67
2023-03-29T20:57:20.668Z,2.63
2023-03-29T20:59:49.145Z,2.70
2023-03-29T21:02:21.755Z,2.35
2023-03-29T21:04:52.791Z,2.60
2023-03-29T21:07:21.222Z,2.30
2023-03-29T21:09:49.800Z,2.22
2023-03-29T21:12:16.701Z,2.20
2023-03-29T21:14:43.485Z,2.42
2023-03-29T21:17:10.263Z,1.83
2023-03-29T21:19:38.217Z,2.60
2023-03-29T21:22:05.308Z,1.98
2023-03-29T21:24:32.969Z,1.88
2023-03-29T21:27:00.514Z,2.35
2023-03-29T21:29:27.295Z,1.70
2023-03-29T21:31:54.017Z,1.95
2023-03-29T21:34:20.559Z,2.00
2023-03-29T21:36:47.128Z,1.85
2023-03-29T21:39:13.630Z,1.90
2023-03-29T21:41:39.989Z,2.15
2023-03-29T21:44:06.444Z,1.70
2023-03-29T21:46:32.969Z,1.80
2023-03-29T21:48:59.312Z,1.98
2023-03-29T21:51:25.691Z,2.00
2023-03-29T21:53:52.052Z,1.75
2023-03-29T21:56:18.388Z,1.92
2023-03-29T21:58:44.842Z,1.92
2023-03-29T22:01:11.252Z,1.80
2023-03-29T22:03:38.030Z,2.28
2023-03-29T22:06:10.390Z,1.77
2023-03-29T22:08:40.073Z,1.98
2023-03-29T22:11:10.910Z,1.92
2023-03-29T22:13:37.681Z,1.90
2023-03-29T22:16:05.409Z,1.80
2023-03-29T22:18:42.887Z,1.80
2023-03-29T22:21:14.394Z,2.08
2023-03-29T22:23:42.316Z,2.08
2023-03-29T22:26:11.006Z,1.70
2023-03-29T22:28:37.953Z,1.80
2023-03-29T22:31:06.999Z,1.90
2023-03-29T22:33:34.714Z,2.25
2023-03-29T22:36:02.473Z,2.00
2023-03-29T22:38:29.424Z,1.83
2023-03-29T22:40:55.956Z,1.88
2023-03-29T22:43:22.388Z,1.75
2023-03-29T22:45:48.836Z,1.88
2023-03-29T22:48:15.406Z,2.05
2023-03-29T22:50:42.889Z,1.95
2023-03-29T22:53:10.199Z,1.90
2023-03-29T22:55:37.092Z,1.80
2023-03-29T22:58:04.011Z,1.55
2023-03-29T23:00:30.886Z,1.92
2023-03-29T23:02:57.655Z,1.70
2023-03-29T23:05:24.217Z,1.88
2023-03-29T23:07:50.629Z,1.95
2023-03-29T23:10:17.395Z,2.08
2023-03-29T23:12:43.856Z,1.65
2023-03-29T23:15:11.309Z,2.00
2023-03-29T23:17:37.694Z,2.17
2023-03-29T23:20:08.359Z,1.83
2023-03-29T23:22:36.239Z,2.03
2023-03-29T23:25:02.633Z,2.00
2023-03-29T23:27:29.212Z,2.70
2023-03-29T23:29:56.208Z,1.77
2023-03-29T23:32:22.586Z,1.88
2023-03-29T23:34:48.942Z,2.10
2023-03-29T23:37:15.331Z,1.83
2023-03-29T23:39:41.766Z,1.73
2023-03-29T23:42:08.161Z,2.10
2023-03-29T23:44:34.539Z,2.00
2023-03-29T23:47:00.973Z,1.85
2023-03-29T23:49:28.105Z,2.10
2023-03-29T23:51:55.894Z,1.73
2023-03-29T23:54:22.472Z,1.75
2023-03-29T23:56:48.915Z,2.35
2023-03-29T23:59:15.346Z,1.83
